sensor_id;sensor_type;location;lat;lon;timestamp;P1;durP1;ratioP1;P2;durP2;ratioP2
43883;SDS011;71973;52.018;5.810;2023-08-07T00:00:51;2.07;;;0.90;;
43883;SDS011;71973;52.018;5.810;2023-08-07T00:03:17;3.63;;;1.13;;
43883;SDS011;71973;52.018;5.810;2023-08-07T00:05:47;2.55;;;1.05;;
43883;SDS011;71973;52.018;5.810;2023-08-07T00:08:13;3.33;;;1.20;;
43883;SDS011;71973;52.018;5.810;2023-08-07T00:10:39;2.08;;;0.90;;
43883;SDS011;71973;52.018;5.810;2023-08-07T00:13:04;2.83;;;0.90;;
43883;SDS011;71973;52.018;5.810;2023-08-07T00:15:30;1.92;;;0.77;;
43883;SDS011;71973;52.018;5.810;2023-08-07T00:17:58;5.13;;;1.50;;
43883;SDS011;71973;52.018;5.810;2023-08-07T00:20:24;3.75;;;0.80;;
43883;SDS011;71973;52.018;5.810;2023-08-07T00:22:49;4.03;;;1.10;;
43883;SDS011;71973;52.018;5.810;2023-08-07T00:25:15;1.90;;;1.00;;
43883;SDS011;71973;52.018;5.810;2023-08-07T00:27:40;2.83;;;0.80;;
43883;SDS011;71973;52.018;5.810;2023-08-07T00:30:06;2.13;;;0.77;;
43883;SDS011;71973;52.018;5.810;2023-08-07T00:32:32;6.45;;;1.13;;
43883;SDS011;71973;52.018;5.810;2023-08-07T00:34:57;3.57;;;1.00;;
43883;SDS011;71973;52.018;5.810;2023-08-07T00:37:23;1.23;;;0.60;;
43883;SDS011;71973;52.018;5.810;2023-08-07T00:39:48;2.70;;;1.10;;
43883;SDS011;71973;52.018;5.810;2023-08-07T00:42:14;3.07;;;1.00;;
43883;SDS011;71973;52.018;5.810;2023-08-07T00:44:39;2.23;;;0.80;;
43883;SDS011;71973;52.018;5.810;2023-08-07T00:47:05;2.13;;;0.83;;
43883;SDS011;71973;52.018;5.810;2023-08-07T00:49:31;2.65;;;1.00;;
43883;SDS011;71973;52.018;5.810;2023-08-07T00:51:57;2.03;;;0.95;;
43883;SDS011;71973;52.018;5.810;2023-08-07T00:54:23;2.60;;;0.85;;
43883;SDS011;71973;52.018;5.810;2023-08-07T00:56:50;2.05;;;0.65;;
43883;SDS011;71973;52.018;5.810;2023-08-07T00:59:15;1.30;;;0.73;;
43883;SDS011;71973;52.018;5.810;2023-08-07T01:01:41;1.93;;;0.90;;
43883;SDS011;71973;52.018;5.810;2023-08-07T01:04:07;1.57;;;0.70;;
43883;SDS011;71973;52.018;5.810;2023-08-07T01:06:32;1.57;;;0.80;;
43883;SDS011;71973;52.018;5.810;2023-08-07T01:08:58;2.57;;;0.97;;
43883;SDS011;71973;52.018;5.810;2023-08-07T01:11:29;2.37;;;0.93;;
43883;SDS011;71973;52.018;5.810;2023-08-07T01:14:13;1.00;;;0.63;;
43883;SDS011;71973;52.018;5.810;2023-08-07T01:17:02;2.97;;;1.13;;
43883;SDS011;71973;52.018;5.810;2023-08-07T01:19:40;2.35;;;1.10;;
43883;SDS011;71973;52.018;5.810;2023-08-07T01:22:09;3.45;;;1.08;;
43883;SDS011;71973;52.018;5.810;2023-08-07T01:24:36;2.58;;;0.60;;
43883;SDS011;71973;52.018;5.810;2023-08-07T01:27:26;2.38;;;0.80;;
43883;SDS011;71973;52.018;5.810;2023-08-07T01:32:54;1.85;;;1.05;;
43883;SDS011;71973;52.018;5.810;2023-08-07T01:35:29;1.90;;;0.82;;
43883;SDS011;71973;52.018;5.810;2023-08-07T01:37:59;2.63;;;0.90;;
43883;SDS011;71973;52.018;5.810;2023-08-07T01:40:26;2.78;;;0.95;;
43883;SDS011;71973;52.018;5.810;2023-08-07T01:42:53;2.38;;;0.93;;
43883;SDS011;71973;52.018;5.810;2023-08-07T01:45:26;3.72;;;0.93;;
43883;SDS011;71973;52.018;5.810;2023-08-07T01:47:53;3.05;;;1.35;;
43883;SDS011;71973;52.018;5.810;2023-08-07T01:50:19;4.03;;;1.42;;
43883;SDS011;71973;52.018;5.810;2023-08-07T01:52:46;3.38;;;1.17;;
43883;SDS011;71973;52.018;5.810;2023-08-07T01:55:15;2.17;;;0.95;;
43883;SDS011;71973;52.018;5.810;2023-08-07T01:57:41;3.00;;;1.48;;
43883;SDS011;71973;52.018;5.810;2023-08-07T02:00:06;3.87;;;1.00;;
43883;SDS011;71973;52.018;5.810;2023-08-07T02:02:33;2.17;;;0.95;;
43883;SDS011;71973;52.018;5.810;2023-08-07T02:04:59;2.97;;;1.08;;
43883;SDS011;71973;52.018;5.810;2023-08-07T02:07:25;2.33;;;0.90;;
43883;SDS011;71973;52.018;5.810;2023-08-07T02:09:50;3.60;;;1.33;;
43883;SDS011;71973;52.018;5.810;2023-08-07T02:12:16;3.90;;;1.40;;
43883;SDS011;71973;52.018;5.810;2023-08-07T02:14:41;4.83;;;1.03;;
43883;SDS011;71973;52.018;5.810;2023-08-07T02:17:07;3.93;;;1.40;;
43883;SDS011;71973;52.018;5.810;2023-08-07T02:19:32;4.30;;;1.13;;
43883;SDS011;71973;52.018;5.810;2023-08-07T02:21:58;3.73;;;1.30;;
43883;SDS011;71973;52.018;5.810;2023-08-07T02:24:23;4.03;;;1.30;;
43883;SDS011;71973;52.018;5.810;2023-08-07T02:26:49;6.00;;;1.57;;
43883;SDS011;71973;52.018;5.810;2023-08-07T02:29:14;5.33;;;1.60;;
43883;SDS011;71973;52.018;5.810;2023-08-07T02:31:40;7.20;;;1.27;;
43883;SDS011;71973;52.018;5.810;2023-08-07T02:34:05;2.77;;;1.07;;
43883;SDS011;71973;52.018;5.810;2023-08-07T02:36:31;4.45;;;1.48;;
43883;SDS011;71973;52.018;5.810;2023-08-07T02:38:57;3.17;;;1.30;;
43883;SDS011;71973;52.018;5.810;2023-08-07T02:41:22;2.83;;;1.40;;
43883;SDS011;71973;52.018;5.810;2023-08-07T02:43:48;4.83;;;1.40;;
43883;SDS011;71973;52.018;5.810;2023-08-07T02:46:14;4.10;;;1.30;;
43883;SDS011;71973;52.018;5.810;2023-08-07T02:48:39;4.33;;;1.10;;
43883;SDS011;71973;52.018;5.810;2023-08-07T02:51:05;5.10;;;1.30;;
43883;SDS011;71973;52.018;5.810;2023-08-07T02:53:31;3.45;;;1.30;;
43883;SDS011;71973;52.018;5.810;2023-08-07T02:55:56;3.03;;;1.30;;
43883;SDS011;71973;52.018;5.810;2023-08-07T02:58:22;3.57;;;1.27;;
43883;SDS011;71973;52.018;5.810;2023-08-07T03:00:47;3.40;;;1.40;;
43883;SDS011;71973;52.018;5.810;2023-08-07T03:03:13;6.33;;;1.37;;
43883;SDS011;71973;52.018;5.810;2023-08-07T03:05:38;4.37;;;1.50;;
43883;SDS011;71973;52.018;5.810;2023-08-07T03:08:04;2.90;;;1.20;;
43883;SDS011;71973;52.018;5.810;2023-08-07T03:10:29;2.90;;;1.37;;
43883;SDS011;71973;52.018;5.810;2023-08-07T03:12:55;5.13;;;1.50;;
43883;SDS011;71973;52.018;5.810;2023-08-07T03:15:20;4.67;;;1.47;;
43883;SDS011;71973;52.018;5.810;2023-08-07T03:17:46;3.63;;;1.30;;
43883;SDS011;71973;52.018;5.810;2023-08-07T03:20:11;5.83;;;1.93;;
43883;SDS011;71973;52.018;5.810;2023-08-07T03:22:37;5.03;;;1.60;;
43883;SDS011;71973;52.018;5.810;2023-08-07T03:25:03;4.33;;;1.80;;
43883;SDS011;71973;52.018;5.810;2023-08-07T03:27:28;3.90;;;1.60;;
43883;SDS011;71973;52.018;5.810;2023-08-07T03:29:54;3.23;;;1.40;;
43883;SDS011;71973;52.018;5.810;2023-08-07T03:32:19;3.40;;;1.40;;
43883;SDS011;71973;52.018;5.810;2023-08-07T03:34:45;3.20;;;1.40;;
43883;SDS011;71973;52.018;5.810;2023-08-07T03:37:10;3.33;;;1.30;;
43883;SDS011;71973;52.018;5.810;2023-08-07T03:39:36;2.90;;;1.43;;
43883;SDS011;71973;52.018;5.810;2023-08-07T03:42:01;3.73;;;1.50;;
43883;SDS011;71973;52.018;5.810;2023-08-07T03:44:27;4.33;;;1.50;;
43883;SDS011;71973;52.018;5.810;2023-08-07T03:46:52;2.37;;;1.33;;
43883;SDS011;71973;52.018;5.810;2023-08-07T03:49:21;2.22;;;1.40;;
43883;SDS011;71973;52.018;5.810;2023-08-07T03:51:47;8.23;;;1.77;;
43883;SDS011;71973;52.018;5.810;2023-08-07T03:54:13;3.63;;;1.20;;
43883;SDS011;71973;52.018;5.810;2023-08-07T03:56:38;3.10;;;1.40;;
43883;SDS011;71973;52.018;5.810;2023-08-07T03:59:04;3.47;;;1.13;;
43883;SDS011;71973;52.018;5.810;2023-08-07T04:01:29;5.77;;;1.73;;
43883;SDS011;71973;52.018;5.810;2023-08-07T04:03:55;4.17;;;1.50;;
43883;SDS011;71973;52.018;5.810;2023-08-07T04:06:20;3.70;;;1.43;;
43883;SDS011;71973;52.018;5.810;2023-08-07T04:08:46;3.63;;;1.50;;
43883;SDS011;71973;52.018;5.810;2023-08-07T04:11:12;2.78;;;1.30;;
43883;SDS011;71973;52.018;5.810;2023-08-07T04:13:38;4.40;;;1.70;;
43883;SDS011;71973;52.018;5.810;2023-08-07T04:16:03;4.17;;;1.50;;
43883;SDS011;71973;52.018;5.810;2023-08-07T04:18:30;5.63;;;2.08;;
43883;SDS011;71973;52.018;5.810;2023-08-07T04:20:56;3.85;;;1.40;;
43883;SDS011;71973;52.018;5.810;2023-08-07T04:23:22;4.20;;;1.40;;
43883;SDS011;71973;52.018;5.810;2023-08-07T04:25:48;4.18;;;1.55;;
43883;SDS011;71973;52.018;5.810;2023-08-07T04:28:14;5.35;;;1.60;;
43883;SDS011;71973;52.018;5.810;2023-08-07T04:30:40;3.93;;;1.80;;
43883;SDS011;71973;52.018;5.810;2023-08-07T04:33:07;11.07;;;1.55;;
43883;SDS011;71973;52.018;5.810;2023-08-07T04:35:32;5.82;;;1.50;;
43883;SDS011;71973;52.018;5.810;2023-08-07T04:37:58;9.87;;;2.87;;
43883;SDS011;71973;52.018;5.810;2023-08-07T04:40:23;7.23;;;1.87;;
43883;SDS011;71973;52.018;5.810;2023-08-07T04:42:49;10.43;;;1.80;;
43883;SDS011;71973;52.018;5.810;2023-08-07T04:45:15;5.45;;;1.33;;
43883;SDS011;71973;52.018;5.810;2023-08-07T04:47:40;4.30;;;1.63;;
43883;SDS011;71973;52.018;5.810;2023-08-07T04:50:06;5.20;;;1.65;;
43883;SDS011;71973;52.018;5.810;2023-08-07T04:52:33;7.03;;;1.80;;
43883;SDS011;71973;52.018;5.810;2023-08-07T04:54:59;6.50;;;1.83;;
43883;SDS011;71973;52.018;5.810;2023-08-07T04:57:24;6.53;;;1.90;;
43883;SDS011;71973;52.018;5.810;2023-08-07T04:59:50;4.78;;;1.75;;
43883;SDS011;71973;52.018;5.810;2023-08-07T05:02:16;5.63;;;2.35;;
43883;SDS011;71973;52.018;5.810;2023-08-07T05:04:42;10.50;;;2.73;;
43883;SDS011;71973;52.018;5.810;2023-08-07T05:07:08;6.75;;;2.38;;
43883;SDS011;71973;52.018;5.810;2023-08-07T05:09:33;7.30;;;2.00;;
43883;SDS011;71973;52.018;5.810;2023-08-07T05:11:59;9.53;;;2.20;;
43883;SDS011;71973;52.018;5.810;2023-08-07T05:14:24;7.70;;;2.27;;
43883;SDS011;71973;52.018;5.810;2023-08-07T05:16:49;6.97;;;2.13;;
43883;SDS011;71973;52.018;5.810;2023-08-07T05:19:15;6.10;;;2.10;;
43883;SDS011;71973;52.018;5.810;2023-08-07T05:21:40;5.50;;;2.07;;
43883;SDS011;71973;52.018;5.810;2023-08-07T05:24:06;12.13;;;2.17;;
43883;SDS011;71973;52.018;5.810;2023-08-07T05:26:31;6.73;;;2.00;;
43883;SDS011;71973;52.018;5.810;2023-08-07T05:28:57;5.53;;;1.57;;
43883;SDS011;71973;52.018;5.810;2023-08-07T05:31:24;5.07;;;1.75;;
43883;SDS011;71973;52.018;5.810;2023-08-07T05:33:49;4.45;;;1.50;;
43883;SDS011;71973;52.018;5.810;2023-08-07T05:36:15;7.70;;;2.10;;
43883;SDS011;71973;52.018;5.810;2023-08-07T05:38:41;6.53;;;1.97;;
43883;SDS011;71973;52.018;5.810;2023-08-07T05:41:08;3.63;;;1.60;;
43883;SDS011;71973;52.018;5.810;2023-08-07T05:43:34;4.25;;;1.55;;
43883;SDS011;71973;52.018;5.810;2023-08-07T05:45:59;5.60;;;1.70;;
43883;SDS011;71973;52.018;5.810;2023-08-07T05:48:25;5.17;;;1.63;;
43883;SDS011;71973;52.018;5.810;2023-08-07T05:50:51;5.05;;;1.45;;
43883;SDS011;71973;52.018;5.810;2023-08-07T05:53:17;6.05;;;1.60;;
43883;SDS011;71973;52.018;5.810;2023-08-07T05:55:43;6.17;;;1.80;;
43883;SDS011;71973;52.018;5.810;2023-08-07T05:58:08;5.87;;;1.90;;
43883;SDS011;71973;52.018;5.810;2023-08-07T06:00:34;5.30;;;1.73;;
43883;SDS011;71973;52.018;5.810;2023-08-07T06:02:59;4.40;;;1.50;;
43883;SDS011;71973;52.018;5.810;2023-08-07T06:05:25;5.83;;;1.93;;
43883;SDS011;71973;52.018;5.810;2023-08-07T06:07:50;4.57;;;1.40;;
43883;SDS011;71973;52.018;5.810;2023-08-07T06:10:16;2.97;;;1.27;;
43883;SDS011;71973;52.018;5.810;2023-08-07T06:12:42;5.10;;;1.90;;
43883;SDS011;71973;52.018;5.810;2023-08-07T06:15:07;9.47;;;2.30;;
43883;SDS011;71973;52.018;5.810;2023-08-07T06:17:34;3.33;;;1.67;;
43883;SDS011;71973;52.018;5.810;2023-08-07T06:19:59;4.70;;;1.73;;
43883;SDS011;71973;52.018;5.810;2023-08-07T06:22:25;6.07;;;2.20;;
43883;SDS011;71973;52.018;5.810;2023-08-07T06:24:50;4.33;;;1.50;;
43883;SDS011;71973;52.018;5.810;2023-08-07T06:27:16;4.37;;;1.43;;
43883;SDS011;71973;52.018;5.810;2023-08-07T06:29:42;4.50;;;2.20;;
43883;SDS011;71973;52.018;5.810;2023-08-07T06:32:07;5.07;;;2.00;;
43883;SDS011;71973;52.018;5.810;2023-08-07T06:34:35;6.65;;;2.30;;
43883;SDS011;71973;52.018;5.810;2023-08-07T06:37:02;4.45;;;1.70;;
43883;SDS011;71973;52.018;5.810;2023-08-07T06:39:29;4.28;;;1.40;;
43883;SDS011;71973;52.018;5.810;2023-08-07T06:41:54;5.60;;;1.77;;
43883;SDS011;71973;52.018;5.810;2023-08-07T06:44:20;3.13;;;1.37;;
43883;SDS011;71973;52.018;5.810;2023-08-07T06:46:45;5.67;;;2.17;;
43883;SDS011;71973;52.018;5.810;2023-08-07T06:49:11;1.63;;;1.17;;
43883;SDS011;71973;52.018;5.810;2023-08-07T06:51:36;7.07;;;1.90;;
43883;SDS011;71973;52.018;5.810;2023-08-07T06:54:02;4.70;;;1.83;;
43883;SDS011;71973;52.018;5.810;2023-08-07T06:56:28;3.75;;;1.90;;
43883;SDS011;71973;52.018;5.810;2023-08-07T06:58:53;5.30;;;1.73;;
43883;SDS011;71973;52.018;5.810;2023-08-07T07:01:19;6.80;;;1.70;;
43883;SDS011;71973;52.018;5.810;2023-08-07T07:03:44;3.13;;;1.77;;
43883;SDS011;71973;52.018;5.810;2023-08-07T07:06:11;4.20;;;1.48;;
43883;SDS011;71973;52.018;5.810;2023-08-07T07:08:37;3.90;;;1.85;;
43883;SDS011;71973;52.018;5.810;2023-08-07T07:11:03;5.17;;;1.60;;
43883;SDS011;71973;52.018;5.810;2023-08-07T07:15:55;5.38;;;1.70;;
43883;SDS011;71973;52.018;5.810;2023-08-07T07:18:20;4.47;;;1.77;;
43883;SDS011;71973;52.018;5.810;2023-08-07T07:20:46;5.00;;;1.97;;
43883;SDS011;71973;52.018;5.810;2023-08-07T07:23:11;4.83;;;1.70;;
43883;SDS011;71973;52.018;5.810;2023-08-07T07:25:37;4.17;;;1.40;;
43883;SDS011;71973;52.018;5.810;2023-08-07T07:28:02;5.07;;;1.80;;
43883;SDS011;71973;52.018;5.810;2023-08-07T07:30:28;4.60;;;2.27;;
43883;SDS011;71973;52.018;5.810;2023-08-07T07:32:53;4.83;;;1.97;;
43883;SDS011;71973;52.018;5.810;2023-08-07T07:35:19;3.73;;;1.30;;
43883;SDS011;71973;52.018;5.810;2023-08-07T07:37:44;7.23;;;2.40;;
43883;SDS011;71973;52.018;5.810;2023-08-07T07:40:10;3.90;;;1.60;;
43883;SDS011;71973;52.018;5.810;2023-08-07T07:42:36;4.82;;;1.67;;
43883;SDS011;71973;52.018;5.810;2023-08-07T07:45:01;5.77;;;1.87;;
43883;SDS011;71973;52.018;5.810;2023-08-07T07:47:27;5.15;;;1.50;;
43883;SDS011;71973;52.018;5.810;2023-08-07T07:50:03;3.70;;;1.60;;
43883;SDS011;71973;52.018;5.810;2023-08-07T07:52:31;3.67;;;1.73;;
43883;SDS011;71973;52.018;5.810;2023-08-07T07:54:56;3.57;;;1.30;;
43883;SDS011;71973;52.018;5.810;2023-08-07T07:57:22;5.87;;;2.20;;
43883;SDS011;71973;52.018;5.810;2023-08-07T07:59:47;3.57;;;1.37;;
43883;SDS011;71973;52.018;5.810;2023-08-07T08:02:13;5.13;;;1.38;;
43883;SDS011;71973;52.018;5.810;2023-08-07T08:04:41;3.25;;;1.42;;
43883;SDS011;71973;52.018;5.810;2023-08-07T08:07:06;2.63;;;1.30;;
43883;SDS011;71973;52.018;5.810;2023-08-07T08:09:32;2.77;;;1.33;;
43883;SDS011;71973;52.018;5.810;2023-08-07T08:11:59;2.53;;;1.50;;
43883;SDS011;71973;52.018;5.810;2023-08-07T08:14:24;5.67;;;2.00;;
43883;SDS011;71973;52.018;5.810;2023-08-07T08:16:50;2.83;;;1.40;;
43883;SDS011;71973;52.018;5.810;2023-08-07T08:19:15;5.40;;;1.77;;
43883;SDS011;71973;52.018;5.810;2023-08-07T08:21:41;5.78;;;1.73;;
43883;SDS011;71973;52.018;5.810;2023-08-07T08:24:07;3.70;;;1.50;;
43883;SDS011;71973;52.018;5.810;2023-08-07T08:26:33;4.97;;;1.60;;
43883;SDS011;71973;52.018;5.810;2023-08-07T08:28:58;3.57;;;1.37;;
43883;SDS011;71973;52.018;5.810;2023-08-07T08:31:24;5.60;;;2.20;;
43883;SDS011;71973;52.018;5.810;2023-08-07T08:33:49;4.57;;;1.50;;
43883;SDS011;71973;52.018;5.810;2023-08-07T08:36:15;3.85;;;1.67;;
43883;SDS011;71973;52.018;5.810;2023-08-07T08:38:40;3.83;;;1.70;;
43883;SDS011;71973;52.018;5.810;2023-08-07T08:41:06;5.13;;;1.83;;
43883;SDS011;71973;52.018;5.810;2023-08-07T08:43:34;4.15;;;1.70;;
43883;SDS011;71973;52.018;5.810;2023-08-07T08:46:04;2.70;;;1.20;;
43883;SDS011;71973;52.018;5.810;2023-08-07T08:48:30;6.10;;;1.60;;
43883;SDS011;71973;52.018;5.810;2023-08-07T08:50:59;5.20;;;1.80;;
43883;SDS011;71973;52.018;5.810;2023-08-07T08:53:26;5.50;;;1.80;;
43883;SDS011;71973;52.018;5.810;2023-08-07T08:55:52;3.90;;;2.00;;
43883;SDS011;71973;52.018;5.810;2023-08-07T08:58:18;7.27;;;2.10;;
43883;SDS011;71973;52.018;5.810;2023-08-07T09:00:46;6.57;;;2.10;;
43883;SDS011;71973;52.018;5.810;2023-08-07T09:03:12;5.18;;;2.10;;
43883;SDS011;71973;52.018;5.810;2023-08-07T09:05:38;3.53;;;1.77;;
43883;SDS011;71973;52.018;5.810;2023-08-07T09:08:05;4.22;;;1.70;;
43883;SDS011;71973;52.018;5.810;2023-08-07T09:10:31;5.05;;;1.80;;
43883;SDS011;71973;52.018;5.810;2023-08-07T09:13:01;4.68;;;1.75;;
43883;SDS011;71973;52.018;5.810;2023-08-07T09:15:31;6.25;;;1.88;;
43883;SDS011;71973;52.018;5.810;2023-08-07T09:17:58;5.90;;;2.00;;
43883;SDS011;71973;52.018;5.810;2023-08-07T09:22:50;8.98;;;2.63;;
43883;SDS011;71973;52.018;5.810;2023-08-07T09:25:25;4.15;;;1.52;;
43883;SDS011;71973;52.018;5.810;2023-08-07T09:27:52;4.88;;;1.88;;
43883;SDS011;71973;52.018;5.810;2023-08-07T09:30:20;5.15;;;1.85;;
43883;SDS011;71973;52.018;5.810;2023-08-07T09:32:47;3.00;;;1.70;;
43883;SDS011;71973;52.018;5.810;2023-08-07T09:35:13;6.28;;;2.22;;
43883;SDS011;71973;52.018;5.810;2023-08-07T09:37:38;5.27;;;1.90;;
43883;SDS011;71973;52.018;5.810;2023-08-07T09:40:04;6.20;;;1.97;;
43883;SDS011;71973;52.018;5.810;2023-08-07T09:42:31;5.72;;;1.63;;
43883;SDS011;71973;52.018;5.810;2023-08-07T09:44:59;4.55;;;1.75;;
43883;SDS011;71973;52.018;5.810;2023-08-07T09:47:25;5.63;;;2.00;;
43883;SDS011;71973;52.018;5.810;2023-08-07T09:49:51;6.40;;;1.80;;
43883;SDS011;71973;52.018;5.810;2023-08-07T09:52:19;3.58;;;1.65;;
43883;SDS011;71973;52.018;5.810;2023-08-07T09:54:45;5.27;;;2.03;;
43883;SDS011;71973;52.018;5.810;2023-08-07T09:57:11;4.63;;;1.60;;
43883;SDS011;71973;52.018;5.810;2023-08-07T09:59:36;3.53;;;1.70;;
43883;SDS011;71973;52.018;5.810;2023-08-07T10:02:02;4.70;;;1.70;;
43883;SDS011;71973;52.018;5.810;2023-08-07T10:04:28;4.70;;;1.80;;
43883;SDS011;71973;52.018;5.810;2023-08-07T10:06:55;7.10;;;1.92;;
43883;SDS011;71973;52.018;5.810;2023-08-07T10:09:22;4.50;;;1.70;;
43883;SDS011;71973;52.018;5.810;2023-08-07T10:11:51;6.57;;;2.00;;
43883;SDS011;71973;52.018;5.810;2023-08-07T10:14:17;4.28;;;1.80;;
43883;SDS011;71973;52.018;5.810;2023-08-07T10:16:43;7.13;;;1.88;;
43883;SDS011;71973;52.018;5.810;2023-08-07T10:19:10;4.97;;;1.67;;
43883;SDS011;71973;52.018;5.810;2023-08-07T10:21:38;4.68;;;1.60;;
43883;SDS011;71973;52.018;5.810;2023-08-07T10:24:05;9.02;;;1.80;;
43883;SDS011;71973;52.018;5.810;2023-08-07T10:26:33;5.70;;;1.90;;
43883;SDS011;71973;52.018;5.810;2023-08-07T10:29:00;3.70;;;2.00;;
43883;SDS011;71973;52.018;5.810;2023-08-07T10:31:29;5.40;;;2.10;;
43883;SDS011;71973;52.018;5.810;2023-08-07T10:33:56;5.47;;;1.60;;
43883;SDS011;71973;52.018;5.810;2023-08-07T10:36:22;4.95;;;1.70;;
43883;SDS011;71973;52.018;5.810;2023-08-07T10:38:50;4.03;;;1.60;;
43883;SDS011;71973;52.018;5.810;2023-08-07T10:41:37;6.45;;;1.70;;
43883;SDS011;71973;52.018;5.810;2023-08-07T10:44:03;3.38;;;1.33;;
43883;SDS011;71973;52.018;5.810;2023-08-07T10:46:29;4.47;;;1.60;;
43883;SDS011;71973;52.018;5.810;2023-08-07T10:49:12;4.25;;;1.63;;
43883;SDS011;71973;52.018;5.810;2023-08-07T10:52:03;5.97;;;2.15;;
43883;SDS011;71973;52.018;5.810;2023-08-07T10:54:29;4.00;;;1.60;;
43883;SDS011;71973;52.018;5.810;2023-08-07T10:56:55;3.47;;;1.60;;
43883;SDS011;71973;52.018;5.810;2023-08-07T10:59:20;2.43;;;1.40;;
43883;SDS011;71973;52.018;5.810;2023-08-07T11:01:53;2.60;;;1.47;;
43883;SDS011;71973;52.018;5.810;2023-08-07T11:04:21;4.20;;;1.80;;
43883;SDS011;71973;52.018;5.810;2023-08-07T11:06:50;3.90;;;1.98;;
43883;SDS011;71973;52.018;5.810;2023-08-07T11:09:16;8.75;;;1.60;;
43883;SDS011;71973;52.018;5.810;2023-08-07T11:11:43;4.90;;;2.00;;
43883;SDS011;71973;52.018;5.810;2023-08-07T11:14:11;5.03;;;1.75;;
43883;SDS011;71973;52.018;5.810;2023-08-07T11:16:39;2.78;;;1.40;;
43883;SDS011;71973;52.018;5.810;2023-08-07T11:19:05;6.28;;;2.25;;
43883;SDS011;71973;52.018;5.810;2023-08-07T11:21:31;8.00;;;2.00;;
43883;SDS011;71973;52.018;5.810;2023-08-07T11:23:57;3.72;;;1.85;;
43883;SDS011;71973;52.018;5.810;2023-08-07T11:26:23;4.25;;;1.65;;
43883;SDS011;71973;52.018;5.810;2023-08-07T11:28:51;2.22;;;1.40;;
43883;SDS011;71973;52.018;5.810;2023-08-07T11:31:17;4.75;;;1.50;;
43883;SDS011;71973;52.018;5.810;2023-08-07T11:33:44;3.30;;;1.40;;
43883;SDS011;71973;52.018;5.810;2023-08-07T11:36:10;4.15;;;1.77;;
43883;SDS011;71973;52.018;5.810;2023-08-07T11:38:38;4.25;;;1.80;;
43883;SDS011;71973;52.018;5.810;2023-08-07T11:41:06;2.80;;;1.48;;
43883;SDS011;71973;52.018;5.810;2023-08-07T11:43:32;2.83;;;1.30;;
43883;SDS011;71973;52.018;5.810;2023-08-07T11:46:02;4.45;;;1.70;;
43883;SDS011;71973;52.018;5.810;2023-08-07T11:48:30;6.28;;;1.90;;
43883;SDS011;71973;52.018;5.810;2023-08-07T11:50:57;5.55;;;2.10;;
43883;SDS011;71973;52.018;5.810;2023-08-07T11:53:26;4.10;;;1.52;;
43883;SDS011;71973;52.018;5.810;2023-08-07T11:55:57;4.97;;;1.80;;
43883;SDS011;71973;52.018;5.810;2023-08-07T11:58:25;4.10;;;1.70;;
43883;SDS011;71973;52.018;5.810;2023-08-07T12:00:52;5.10;;;1.88;;
43883;SDS011;71973;52.018;5.810;2023-08-07T12:05:52;5.78;;;1.77;;
43883;SDS011;71973;52.018;5.810;2023-08-07T12:08:18;3.60;;;1.58;;
43883;SDS011;71973;52.018;5.810;2023-08-07T12:10:44;3.63;;;1.38;;
43883;SDS011;71973;52.018;5.810;2023-08-07T12:13:13;4.90;;;1.80;;
43883;SDS011;71973;52.018;5.810;2023-08-07T12:15:38;5.30;;;1.47;;
43883;SDS011;71973;52.018;5.810;2023-08-07T12:18:06;4.07;;;1.70;;
43883;SDS011;71973;52.018;5.810;2023-08-07T12:20:32;6.35;;;1.75;;
43883;SDS011;71973;52.018;5.810;2023-08-07T12:22:58;3.50;;;1.37;;
43883;SDS011;71973;52.018;5.810;2023-08-07T12:25:23;4.93;;;1.80;;
43883;SDS011;71973;52.018;5.810;2023-08-07T12:27:49;3.60;;;1.60;;
43883;SDS011;71973;52.018;5.810;2023-08-07T12:30:14;5.70;;;1.97;;
43883;SDS011;71973;52.018;5.810;2023-08-07T12:32:40;3.20;;;1.52;;
43883;SDS011;71973;52.018;5.810;2023-08-07T12:35:06;3.37;;;1.57;;
43883;SDS011;71973;52.018;5.810;2023-08-07T12:37:34;5.80;;;1.80;;
43883;SDS011;71973;52.018;5.810;2023-08-07T12:40:00;5.10;;;1.77;;
43883;SDS011;71973;52.018;5.810;2023-08-07T12:42:25;5.93;;;1.67;;
43883;SDS011;71973;52.018;5.810;2023-08-07T12:44:51;5.37;;;1.77;;
43883;SDS011;71973;52.018;5.810;2023-08-07T12:47:16;6.93;;;1.70;;
43883;SDS011;71973;52.018;5.810;2023-08-07T12:49:42;4.90;;;1.83;;
43883;SDS011;71973;52.018;5.810;2023-08-07T12:52:10;4.70;;;1.75;;
43883;SDS011;71973;52.018;5.810;2023-08-07T12:54:36;4.17;;;1.70;;
43883;SDS011;71973;52.018;5.810;2023-08-07T12:57:01;4.53;;;2.00;;
43883;SDS011;71973;52.018;5.810;2023-08-07T12:59:27;4.60;;;1.60;;
43883;SDS011;71973;52.018;5.810;2023-08-07T13:01:53;3.73;;;1.60;;
43883;SDS011;71973;52.018;5.810;2023-08-07T13:04:18;3.38;;;1.52;;
43883;SDS011;71973;52.018;5.810;2023-08-07T13:06:44;6.50;;;1.60;;
43883;SDS011;71973;52.018;5.810;2023-08-07T13:09:09;4.73;;;2.03;;
43883;SDS011;71973;52.018;5.810;2023-08-07T13:11:35;5.47;;;1.87;;
43883;SDS011;71973;52.018;5.810;2023-08-07T13:14:00;2.90;;;1.37;;
43883;SDS011;71973;52.018;5.810;2023-08-07T13:16:26;4.47;;;1.80;;
43883;SDS011;71973;52.018;5.810;2023-08-07T13:18:51;5.00;;;1.50;;
43883;SDS011;71973;52.018;5.810;2023-08-07T13:21:17;3.60;;;1.80;;
43883;SDS011;71973;52.018;5.810;2023-08-07T13:23:42;4.27;;;1.60;;
43883;SDS011;71973;52.018;5.810;2023-08-07T13:26:08;4.53;;;1.40;;
43883;SDS011;71973;52.018;5.810;2023-08-07T13:28:33;3.60;;;1.50;;
43883;SDS011;71973;52.018;5.810;2023-08-07T13:30:59;4.50;;;1.23;;
43883;SDS011;71973;52.018;5.810;2023-08-07T13:33:24;4.17;;;1.73;;
43883;SDS011;71973;52.018;5.810;2023-08-07T13:35:50;2.63;;;1.50;;
43883;SDS011;71973;52.018;5.810;2023-08-07T13:38:15;3.20;;;1.50;;
43883;SDS011;71973;52.018;5.810;2023-08-07T13:40:43;1.92;;;1.30;;
43883;SDS011;71973;52.018;5.810;2023-08-07T13:43:10;2.08;;;1.60;;
43883;SDS011;71973;52.018;5.810;2023-08-07T13:45:36;3.00;;;1.37;;
43883;SDS011;71973;52.018;5.810;2023-08-07T13:48:01;3.95;;;1.77;;
43883;SDS011;71973;52.018;5.810;2023-08-07T13:50:27;2.83;;;1.40;;
43883;SDS011;71973;52.018;5.810;2023-08-07T13:52:53;2.88;;;1.35;;
43883;SDS011;71973;52.018;5.810;2023-08-07T13:55:18;3.43;;;1.40;;
43883;SDS011;71973;52.018;5.810;2023-08-07T13:57:44;4.30;;;1.87;;
43883;SDS011;71973;52.018;5.810;2023-08-07T14:00:10;2.42;;;1.42;;
43883;SDS011;71973;52.018;5.810;2023-08-07T14:02:36;3.55;;;1.45;;
43883;SDS011;71973;52.018;5.810;2023-08-07T14:05:01;2.37;;;1.43;;
43883;SDS011;71973;52.018;5.810;2023-08-07T14:07:27;2.72;;;1.40;;
43883;SDS011;71973;52.018;5.810;2023-08-07T14:09:53;3.92;;;1.40;;
43883;SDS011;71973;52.018;5.810;2023-08-07T14:12:19;2.73;;;1.50;;
43883;SDS011;71973;52.018;5.810;2023-08-07T14:14:44;1.70;;;1.07;;
43883;SDS011;71973;52.018;5.810;2023-08-07T14:17:10;3.03;;;1.30;;
43883;SDS011;71973;52.018;5.810;2023-08-07T14:19:35;3.53;;;1.80;;
43883;SDS011;71973;52.018;5.810;2023-08-07T14:22:01;2.20;;;1.30;;
43883;SDS011;71973;52.018;5.810;2023-08-07T14:24:26;1.60;;;1.23;;
43883;SDS011;71973;52.018;5.810;2023-08-07T14:26:52;3.00;;;1.63;;
43883;SDS011;71973;52.018;5.810;2023-08-07T14:29:18;2.50;;;1.53;;
43883;SDS011;71973;52.018;5.810;2023-08-07T14:31:43;3.10;;;1.37;;
43883;SDS011;71973;52.018;5.810;2023-08-07T14:34:09;2.60;;;1.30;;
43883;SDS011;71973;52.018;5.810;2023-08-07T14:36:35;7.17;;;1.73;;
43883;SDS011;71973;52.018;5.810;2023-08-07T14:41:27;4.43;;;1.67;;
43883;SDS011;71973;52.018;5.810;2023-08-07T14:43:52;2.90;;;1.30;;
43883;SDS011;71973;52.018;5.810;2023-08-07T14:46:18;4.73;;;1.30;;
43883;SDS011;71973;52.018;5.810;2023-08-07T14:48:44;1.73;;;1.30;;
43883;SDS011;71973;52.018;5.810;2023-08-07T14:51:11;3.35;;;1.60;;
43883;SDS011;71973;52.018;5.810;2023-08-07T14:53:37;2.30;;;1.43;;
43883;SDS011;71973;52.018;5.810;2023-08-07T14:56:02;2.53;;;1.20;;